Time;durP1;ratioP1;P1;durP2;ratioP2;P2;SDS_P1;SDS_P2;PMS_P1;PMS_P2;Temp;Humidity;BMP_temperature;BMP_pressure;BME280_temperature;BME280_humidity;BME280_pressure;Samples;Min_cycle;Max_cycle;Signal;HPM_P1;HPM_P2
2022/05/18 00:02:11;;;;;;;4.38;3.95;;;;;;;20.63;52.03;93951.44;5012635;28;20045;-90
2022/05/18 00:04:37;;;;;;;5.05;4.55;;;;;;;20.61;52.15;93956.69;5042304;28;20049;-89
2022/05/18 00:07:02;;;;;;;5.65;4.63;;;;;;;20.62;52.08;93957.44;5025974;28;20037;-88
2022/05/18 00:09:28;;;;;;;4.90;4.43;;;;;;;20.61;51.88;93964.19;5026019;28;20415;-90
2022/05/18 00:11:53;;;;;;;5.35;4.85;;;;;;;20.59;52.03;93958.47;5010202;28;20629;-89
2022/05/18 00:14:19;;;;;;;5.70;4.65;;;;;;;20.61;52.15;93964.19;5008743;28;20470;-88
2022/05/18 00:16:44;;;;;;;5.53;4.57;;;;;;;20.61;52.10;93962.19;5010499;28;20484;-89
2022/05/18 00:19:10;;;;;;;5.57;4.95;;;;;;;20.59;52.05;93966.69;5006158;28;20041;-88
2022/05/18 00:21:35;;;;;;;4.60;4.15;;;;;;;20.61;52.00;93966.94;5009596;28;20034;-88
2022/05/18 00:24:00;;;;;;;5.97;4.68;;;;;;;20.61;51.79;93964.94;5009462;28;20065;-89
2022/05/18 00:26:26;;;;;;;4.43;4.03;;;;;;;20.59;51.70;93972.94;5008676;28;20030;-88
2022/05/18 00:28:52;;;;;;;5.32;4.82;;;;;;;20.60;51.80;93974.44;5009854;28;20042;-89
2022/05/18 00:31:18;;;;;;;5.10;4.60;;;;;;;20.58;51.79;93981.69;5013437;28;20037;-88
2022/05/18 00:33:44;;;;;;;4.53;4.13;;;;;;;20.57;51.82;93982.97;5026175;28;20492;-89
2022/05/18 00:36:09;;;;;;;4.72;4.22;;;;;;;20.58;51.88;93976.94;4991025;28;20184;-88
2022/05/18 00:38:35;;;;;;;5.40;4.15;;;;;;;20.56;51.95;93968.50;4975127;28;20578;-87
2022/05/18 00:41:00;;;;;;;4.43;4.03;;;;;;;20.56;52.02;93976.00;4975546;28;20096;-89
2022/05/18 00:43:29;;;;;;;4.45;3.83;;;;;;;20.55;52.02;93972.50;4975245;28;20290;-90
2022/05/18 00:45:54;;;;;;;4.15;3.58;;;;;;;20.55;52.18;93972.50;5008107;28;20068;-88
2022/05/18 00:48:20;;;;;;;5.18;4.68;;;;;;;20.53;51.99;93973.00;4989650;28;20488;-88
2022/05/18 00:50:45;;;;;;;5.18;4.47;;;;;;;20.55;51.81;93977.25;4973995;28;20041;-89
2022/05/18 00:53:19;;;;;;;4.80;4.00;;;;;;;20.52;51.78;93976.25;4974534;28;20038;-90
2022/05/18 00:55:49;;;;;;;5.20;4.40;;;;;;;20.54;51.69;93979.25;4975649;28;20045;-90
2022/05/18 00:58:17;;;;;;;4.35;3.95;;;;;;;20.53;51.99;93986.00;4995625;28;20067;-89
2022/05/18 01:00:43;;;;;;;4.65;4.22;;;;;;;20.55;51.81;93991.72;5027239;28;20072;-89
2022/05/18 01:03:13;;;;;;;4.20;3.80;;;;;;;20.52;51.82;93992.75;5010492;28;20507;-90
2022/05/18 01:05:39;;;;;;;4.18;3.78;;;;;;;20.51;51.73;94002.97;4998009;28;20553;-89
2022/05/18 01:08:04;;;;;;;4.53;4.07;;;;;;;20.51;51.67;93994.00;4960338;28;20034;-88
2022/05/18 01:10:30;;;;;;;4.35;3.95;;;;;;;20.52;51.83;93990.00;4991876;28;20669;-89
2022/05/18 01:12:56;;;;;;;4.20;3.78;;;;;;;20.52;51.66;93990.00;5010084;28;20080;-89
2022/05/18 01:15:22;;;;;;;4.80;3.72;;;;;;;20.53;51.80;93991.50;4993048;28;20095;-88
2022/05/18 01:17:49;;;;;;;4.70;3.70;;;;;;;20.52;51.84;93990.75;5025996;28;20244;-86
2022/05/18 01:20:17;;;;;;;3.50;3.20;;;;;;;20.50;51.93;93989.75;5041853;28;20099;-88
2022/05/18 01:22:52;;;;;;;4.18;3.78;;;;;;;20.52;51.82;93990.00;5011841;28;20079;-89
2022/05/18 01:26:05;;;;;;;4.90;4.05;;;;;;;20.50;51.85;93993.25;5029640;28;20457;-89
2022/05/18 01:28:38;;;;;;;3.55;3.25;;;;;;;20.51;51.88;93994.75;5028561;28;20045;-88
2022/05/18 01:31:04;;;;;;;3.75;3.00;;;;;;;20.50;52.17;94003.50;5028083;28;20124;-89
2022/05/18 01:33:30;;;;;;;4.43;4.00;;;;;;;20.50;51.82;93993.25;4994149;28;20065;-89
2022/05/18 01:35:56;;;;;;;5.15;3.88;;;;;;;20.50;51.99;94000.75;5008794;28;20070;-89
2022/05/18 01:38:21;;;;;;;4.18;3.78;;;;;;;20.49;51.52;94005.50;5012018;28;20041;-88
2022/05/18 01:41:02;;;;;;;3.70;3.28;;;;;;;20.49;51.66;94008.25;5011308;28;20049;-88
2022/05/18 01:43:27;;;;;;;;;;;;;;;20.52;51.72;94006.47;5030979;28;20041;-89
2022/05/18 01:45:55;;;;;;;4.63;3.20;;;;;;;20.48;51.74;94012.25;5029882;28;19948;-89
2022/05/18 01:48:22;;;;;;;3.60;3.30;;;;;;;20.47;52.01;94005.25;5027679;28;20152;-89
2022/05/18 01:50:48;;;;;;;3.70;3.28;;;;;;;20.47;51.78;94010.75;5028346;28;20046;-89
2022/05/18 01:53:13;;;;;;;4.28;3.55;;;;;;;20.48;51.81;94012.25;5026411;28;20048;-88
2022/05/18 01:55:39;;;;;;;3.95;3.30;;;;;;;20.48;51.88;94006.75;5002199;28;20041;-89
2022/05/18 01:58:05;;;;;;;4.47;3.80;;;;;;;20.47;51.88;94013.50;5012370;28;20091;-90
2022/05/18 02:00:30;;;;;;;4.22;3.33;;;;;;;20.48;51.74;94011.50;5010922;28;20496;-89
2022/05/18 02:02:56;;;;;;;3.40;3.10;;;;;;;20.48;51.46;94019.72;5011785;28;20077;-90
2022/05/18 02:05:21;;;;;;;3.88;3.33;;;;;;;20.46;51.50;94020.25;5011525;28;20050;-89
2022/05/18 02:07:47;;;;;;;3.97;3.47;;;;;;;20.47;51.74;94023.72;5020178;28;20492;-88
2022/05/18 02:10:12;;;;;;;4.47;3.90;;;;;;;20.47;51.94;94020.97;5015587;28;20127;-88
2022/05/18 02:12:38;;;;;;;3.55;3.22;;;;;;;20.46;51.71;94019.50;5011130;28;20355;-90
2022/05/18 02:15:04;;;;;;;4.50;4.10;;;;;;;20.45;51.55;94024.25;5034737;28;20090;-89
2022/05/18 02:17:30;;;;;;;3.83;3.30;;;;;;;20.45;51.67;94021.50;4997609;28;20422;-89
2022/05/18 02:19:57;;;;;;;4.00;3.60;;;;;;;20.46;51.69;94025.72;5000238;28;20061;-90
2022/05/18 02:22:25;;;;;;;3.65;3.28;;;;;;;20.46;51.74;94025.00;5026891;28;20044;-90
2022/05/18 02:24:50;;;;;;;4.03;3.42;;;;;;;20.46;51.50;94027.72;5027574;28;20050;-88
2022/05/18 02:27:16;;;;;;;4.10;3.70;;;;;;;20.46;51.70;94025.72;5010500;28;20037;-88
2022/05/18 02:29:41;;;;;;;3.97;3.03;;;;;;;20.46;51.44;94030.47;5011283;28;20499;-90
2022/05/18 02:32:09;;;;;;;3.33;2.85;;;;;;;20.44;51.57;94028.25;5009666;28;20492;-88
2022/05/18 02:34:35;;;;;;;3.97;3.30;;;;;;;20.45;51.63;94035.22;5011497;28;20038;-88
2022/05/18 02:37:00;;;;;;;4.78;3.17;;;;;;;20.43;51.58;94040.47;5010900;28;20038;-90
2022/05/18 02:39:26;;;;;;;5.10;3.22;;;;;;;20.44;51.67;94036.47;5010786;28;20034;-88
2022/05/18 02:41:51;;;;;;;3.80;3.50;;;;;;;20.43;51.54;94036.97;5026641;28;20587;-89
2022/05/18 02:44:17;;;;;;;3.65;3.13;;;;;;;20.42;51.76;94046.47;5010491;28;20053;-89
2022/05/18 02:46:42;;;;;;;3.95;3.63;;;;;;;20.43;51.52;94036.97;5006130;28;20120;-88
2022/05/18 02:49:08;;;;;;;4.00;3.25;;;;;;;20.42;51.69;94041.72;5010225;28;20042;-88
2022/05/18 02:51:33;;;;;;;3.55;3.15;;;;;;;20.42;51.49;94046.47;5010225;28;20045;-88
2022/05/18 02:53:59;;;;;;;3.60;3.28;;;;;;;20.43;51.44;94045.97;5044361;28;20056;-88
2022/05/18 02:56:25;;;;;;;4.30;3.10;;;;;;;20.42;51.39;94041.72;5038206;28;20030;-89
2022/05/18 02:58:52;;;;;;;4.72;3.85;;;;;;;20.41;51.20;94048.47;5028178;28;20124;-89
2022/05/18 03:01:23;;;;;;;3.60;3.30;;;;;;;20.40;51.50;94052.47;5008298;28;20080;-89
2022/05/18 03:03:49;;;;;;;5.65;3.47;;;;;;;20.41;51.43;94048.47;5016067;28;20116;-88
2022/05/18 03:06:16;;;;;;;3.78;3.35;;;;;;;20.40;51.54;94054.47;5017426;28;20484;-89
2022/05/18 03:08:42;;;;;;;4.70;3.50;;;;;;;20.40;51.59;94052.47;5011032;28;20034;-88
2022/05/18 03:11:08;;;;;;;3.58;3.28;;;;;;;20.41;51.51;94066.94;5009691;28;20038;-90
2022/05/18 03:13:34;;;;;;;3.85;3.10;;;;;;;20.41;51.39;94067.69;5010112;28;20103;-89
2022/05/18 03:15:59;;;;;;;3.67;3.30;;;;;;;20.41;51.21;94064.22;5011159;28;20041;-88
2022/05/18 03:18:25;;;;;;;4.55;3.50;;;;;;;20.38;51.45;94071.47;5009689;28;20037;-89
2022/05/18 03:23:34;;;;;;;3.60;3.30;;;;;;;20.40;51.31;94070.94;5025230;28;20560;-88
2022/05/18 03:26:04;;;;;;;3.63;3.30;;;;;;;20.41;51.25;94075.19;5010071;28;20041;-89
2022/05/18 03:28:30;;;;;;;2.88;2.58;;;;;;;20.40;51.63;94074.44;5042433;28;20117;-89
2022/05/18 03:30:55;;;;;;;2.92;2.65;;;;;;;20.39;51.19;94074.94;5009842;28;20076;-88
2022/05/18 03:33:22;;;;;;;3.28;2.97;;;;;;;20.39;51.33;94086.69;5018669;28;20045;-89
2022/05/18 03:35:48;;;;;;;3.85;3.45;;;;;;;20.38;51.08;94089.94;4998663;28;20517;-89
2022/05/18 03:38:14;;;;;;;3.72;3.42;;;;;;;20.37;51.20;94085.69;5001688;28;20045;-88
2022/05/18 03:40:39;;;;;;;4.10;3.42;;;;;;;20.38;51.17;94084.44;4997322;28;20408;-90
2022/05/18 03:43:05;;;;;;;17.58;5.30;;;;;;;20.38;51.24;94087.19;5034566;28;20041;-88
2022/05/18 03:45:30;;;;;;;189.23;26.67;;;;;;;20.37;51.29;94093.94;5038706;28;20038;-90
2022/05/18 03:47:56;;;;;;;27.40;7.60;;;;;;;20.39;51.35;94094.91;5025848;28;20025;-91
2022/05/18 03:50:22;;;;;;;26.60;16.40;;;;;;;20.39;51.41;94088.69;5026917;28;20048;-90
2022/05/18 03:52:47;;;;;;;92.20;61.38;;;;;;;20.42;51.07;94082.19;5033518;28;20029;-89
2022/05/18 03:55:12;;;;;;;23.67;13.50;;;;;;;20.46;51.11;94086.16;5001739;28;20500;-91
2022/05/18 03:57:38;;;;;;;11.75;6.55;;;;;;;20.54;51.01;94091.88;5019018;28;20095;-89
2022/05/18 04:00:06;;;;;;;13.18;6.40;;;;;;;20.59;50.81;94088.31;5033868;28;20029;-88
2022/05/18 04:02:31;;;;;;;21.63;6.82;;;;;;;20.69;50.53;94100.50;5031445;28;20117;-90
2022/05/18 04:04:57;;;;;;;15.02;6.25;;;;;;;20.68;50.53;94099.00;5024573;28;20045;-90
2022/05/18 04:07:22;;;;;;;9.70;5.35;;;;;;;20.61;49.39;94105.03;5028836;28;20046;-90
2022/05/18 04:09:47;;;;;;;14.07;5.50;;;;;;;20.47;48.77;94101.38;5034082;28;20064;-92
2022/05/18 04:12:13;;;;;;;13.32;5.75;;;;;;;20.44;48.11;94116.13;5012097;28;20048;-91
2022/05/18 04:14:39;;;;;;;11.82;6.10;;;;;;;20.37;47.87;94110.41;5008706;28;20058;-88
2022/05/18 04:17:04;;;;;;;14.52;6.97;;;;;;;20.25;47.75;94112.44;5037369;28;20063;-89
2022/05/18 04:19:30;;;;;;;25.77;8.45;;;;;;;20.19;47.87;94114.47;5019960;28;20045;-91
2022/05/18 04:21:56;;;;;;;12.82;6.97;;;;;;;20.17;47.82;94125.19;5043005;28;20042;-90
2022/05/18 04:24:21;;;;;;;12.63;6.80;;;;;;;20.13;47.74;94127.47;5012598;28;20030;-91
2022/05/18 04:26:47;;;;;;;18.20;7.78;;;;;;;20.04;48.02;94133.22;5028395;28;20049;-91
2022/05/18 04:29:13;;;;;;;13.73;7.20;;;;;;;20.03;47.86;94137.22;5023476;28;20030;-91
2022/05/18 04:31:38;;;;;;;21.02;7.50;;;;;;;19.93;48.09;94146.97;5016702;28;20047;-92
2022/05/18 04:34:04;;;;;;;11.70;6.78;;;;;;;20.00;48.11;94138.97;5007755;28;20042;-91
2022/05/18 04:36:29;;;;;;;19.98;8.25;;;;;;;19.92;48.26;94151.72;5026240;28;20038;-89
2022/05/18 04:38:55;;;;;;;24.83;9.60;;;;;;;19.87;47.97;94149.75;5016995;28;20045;-90
2022/05/18 04:41:20;;;;;;;30.38;13.23;;;;;;;19.88;48.31;94150.50;5027360;28;20041;-89
2022/05/18 04:43:46;;;;;;;19.58;10.90;;;;;;;19.81;48.34;94152.50;5015823;28;20046;-88
2022/05/18 04:46:16;;;;;;;15.05;10.63;;;;;;;19.83;48.22;94149.25;5030185;28;20052;-92
2022/05/18 04:48:42;;;;;;;30.80;12.63;;;;;;;19.90;48.08;94145.25;5026806;28;20439;-90
2022/05/18 04:51:09;;;;;;;34.95;19.48;;;;;;;19.87;47.91;94151.75;5024361;28;20069;-88
2022/05/18 04:53:35;;;;;;;39.35;18.50;;;;;;;19.80;48.03;94153.75;5035829;28;20115;-90
2022/05/18 04:56:01;;;;;;;36.45;19.20;;;;;;;19.83;48.07;94160.25;4991501;28;20041;-91
2022/05/18 04:58:28;;;;;;;54.25;23.20;;;;;;;19.89;47.58;94160.22;5023590;28;20041;-88
2022/05/18 05:01:00;;;;;;;129.27;40.28;;;;;;;19.81;47.77;94166.22;5043581;28;20049;-89
2022/05/18 05:03:25;;;;;;;92.75;37.85;;;;;;;19.87;47.72;94162.72;5002251;28;20033;-89
2022/05/18 05:05:51;;;;;;;94.38;38.83;;;;;;;19.83;47.71;94168.47;5016041;28;20836;-88
2022/05/18 05:08:16;;;;;;;82.45;35.22;;;;;;;19.83;47.30;94173.94;4969198;28;20499;-84
2022/05/18 05:10:42;;;;;;;77.03;33.03;;;;;;;19.78;47.38;94174.69;5025098;28;20553;-87
2022/05/18 05:13:07;;;;;;;83.47;30.30;;;;;;;19.81;47.67;94176.44;5016294;28;20040;-89
2022/05/18 05:15:33;;;;;;;81.80;28.65;;;;;;;19.78;47.39;94175.44;5012269;28;20044;-86
2022/05/18 05:17:58;;;;;;;62.47;23.42;;;;;;;19.73;47.74;94169.97;5011346;28;20053;-89
2022/05/18 05:20:24;;;;;;;60.03;23.02;;;;;;;19.76;47.59;94179.94;5016085;28;20049;-89
2022/05/18 05:22:50;;;;;;;67.07;22.70;;;;;;;19.80;47.17;94178.44;5035838;28;20042;-91
2022/05/18 05:25:15;;;;;;;74.68;24.77;;;;;;;19.78;47.32;94174.69;5017154;28;20050;-92
2022/05/18 05:27:41;;;;;;;121.95;32.20;;;;;;;19.82;47.28;94177.94;5012082;28;20029;-88
2022/05/18 05:30:08;;;;;;;87.57;28.25;;;;;;;19.80;47.11;94178.44;5030358;28;20043;-86
2022/05/18 05:32:34;;;;;;;83.82;26.17;;;;;;;19.76;46.93;94185.44;5031049;28;20053;-85
2022/05/18 05:35:01;;;;;;;76.93;22.00;;;;;;;19.77;47.06;94187.66;5039396;28;20898;-87
2022/05/18 05:37:27;;;;;;;57.55;19.85;;;;;;;19.82;46.99;94184.19;5031122;28;20045;-89
2022/05/18 05:39:55;;;;;;;52.88;18.38;;;;;;;19.79;46.69;94184.44;5010562;28;20151;-91
2022/05/18 05:42:20;;;;;;;55.20;17.27;;;;;;;19.77;46.82;94187.66;5014380;28;20080;-90
2022/05/18 05:44:46;;;;;;;56.50;17.08;;;;;;;19.81;46.12;94190.16;5029070;28;20049;-88
2022/05/18 05:47:12;;;;;;;65.38;20.23;;;;;;;19.86;45.87;94192.16;5044198;28;20045;-91
2022/05/18 05:49:39;;;;;;;50.17;17.70;;;;;;;19.77;45.66;94195.16;5030179;28;20052;-88
2022/05/18 05:52:06;;;;;;;49.35;20.45;;;;;;;19.76;45.32;94193.66;5020973;28;20088;-87
2022/05/18 05:54:32;;;;;;;76.47;26.30;;;;;;;19.80;45.07;94194.91;5046822;28;20395;-91
2022/05/18 05:56:58;;;;;;;58.17;19.63;;;;;;;19.82;44.54;94205.38;5000586;28;20037;-90
2022/05/18 05:59:24;;;;;;;58.85;19.63;;;;;;;19.90;44.30;94205.63;5044818;28;20308;-90
2022/05/18 06:01:49;;;;;;;54.20;20.77;;;;;;;19.93;44.36;94197.13;5027124;28;20049;-89
2022/05/18 06:04:15;;;;;;;54.13;20.55;;;;;;;19.94;43.69;94203.34;5011235;28;20041;-90
2022/05/18 06:06:40;;;;;;;55.85;24.90;;;;;;;19.96;43.99;94209.84;5004291;28;20069;-90
2022/05/18 06:09:09;;;;;;;54.40;24.40;;;;;;;20.03;43.65;94209.34;5038230;28;20566;-90
2022/05/18 06:11:37;;;;;;;68.85;36.03;;;;;;;19.96;43.69;94204.34;5025524;28;20038;-90
2022/05/18 06:14:03;;;;;;;119.07;75.40;;;;;;;20.04;43.29;94213.59;5012030;28;20037;-88
2022/05/18 06:16:28;;;;;;;275.15;124.28;;;;;;;20.06;43.17;94219.31;5014418;28;20071;-90
2022/05/18 06:18:56;;;;;;;78.15;41.05;;;;;;;20.08;43.32;94218.81;5015804;28;20564;-90
2022/05/18 06:21:21;;;;;;;61.47;34.20;;;;;;;20.05;43.32;94217.06;5028592;28;20223;-87
2022/05/18 06:23:47;;;;;;;60.08;34.25;;;;;;;20.02;43.61;94216.06;5043691;28;20049;-86
2022/05/18 06:26:12;;;;;;;67.78;36.80;;;;;;;20.06;42.95;94218.56;5023129;28;20037;-89
2022/05/18 06:28:40;;;;;;;46.10;28.60;;;;;;;20.05;43.32;94225.31;5022790;28;20041;-88
2022/05/18 06:31:06;;;;;;;45.35;29.00;;;;;;;20.00;43.00;94223.31;5026588;28;20072;-88
2022/05/18 06:33:31;;;;;;;75.90;33.78;;;;;;;20.06;43.26;94226.81;5012618;28;20072;-86
2022/05/18 06:35:57;;;;;;;83.97;39.53;;;;;;;20.12;42.80;94233.78;5002252;28;20053;-87
2022/05/18 06:38:23;;;;;;;78.63;32.75;;;;;;;20.10;42.66;94230.78;5016371;28;20045;-88
2022/05/18 06:43:32;;;;;;;273.58;72.18;;;;;;;20.10;42.52;94241.78;5039940;28;20120;-85
2022/05/18 06:45:58;;;;;;;115.55;39.22;;;;;;;20.10;42.24;94241.03;5006722;28;20034;-88
2022/05/18 06:48:24;;;;;;;91.35;34.78;;;;;;;20.16;41.39;94244.50;5026233;28;20048;-86
2022/05/18 06:50:49;;;;;;;55.75;26.75;;;;;;;20.06;41.08;94249.50;5010909;28;20345;-87
2022/05/18 06:53:16;;;;;;;61.60;28.27;;;;;;;20.05;40.83;94244.53;5027041;28;20056;-88
2022/05/18 06:55:41;;;;;;;57.97;25.15;;;;;;;20.03;39.82;94244.28;5026096;28;20045;-88
2022/05/18 06:58:07;;;;;;;66.30;24.40;;;;;;;20.00;39.97;94253.50;5005040;28;20050;-87
2022/05/18 07:00:33;;;;;;;57.53;26.15;;;;;;;20.00;39.85;94253.50;5006666;28;20034;-89
2022/05/18 07:02:58;;;;;;;63.00;27.42;;;;;;;20.05;39.82;94259.00;5007175;28;20038;-86
2022/05/18 07:05:24;;;;;;;63.70;28.98;;;;;;;20.05;40.25;94260.97;5007795;28;20057;-86
2022/05/18 07:07:50;;;;;;;60.35;27.40;;;;;;;20.11;40.22;94253.50;5022640;28;20037;-86
2022/05/18 07:10:15;;;;;;;62.58;28.33;;;;;;;20.13;39.91;94264.72;5030792;28;20037;-87
2022/05/18 07:12:41;;;;;;;82.72;35.92;;;;;;;20.14;40.37;94266.94;5032134;28;20049;-90
2022/05/18 07:15:07;;;;;;;84.32;34.85;;;;;;;20.15;40.30;94264.94;5013961;28;20033;-88
2022/05/18 07:17:32;;;;;;;86.82;38.42;;;;;;;20.12;40.47;94263.22;5046051;28;20037;-88
2022/05/18 07:19:58;;;;;;;150.73;51.97;;;;;;;20.09;40.20;94273.22;5007893;28;20041;-87
2022/05/18 07:22:23;;;;;;;88.32;34.25;;;;;;;20.09;40.00;94275.97;4991599;28;20055;-90
2022/05/18 07:24:49;;;;;;;76.43;35.83;;;;;;;20.14;40.14;94269.69;4980685;28;20041;-90
2022/05/18 07:27:15;;;;;;;208.82;83.80;;;;;;;20.17;40.15;94263.19;5028414;28;20043;-87
2022/05/18 07:29:41;;;;;;;170.15;68.95;;;;;;;20.15;39.55;94265.69;4994216;28;20455;-87
2022/05/18 07:32:13;;;;;;;173.13;71.40;;;;;;;20.13;39.95;94265.47;4988375;28;20649;-87
2022/05/18 07:34:39;;;;;;;111.35;43.60;;;;;;;20.18;39.68;94270.19;4993646;28;20048;-86
2022/05/18 07:37:05;;;;;;;112.13;40.30;;;;;;;20.16;39.88;94275.44;4990754;28;20069;-88
2022/05/18 07:39:31;;;;;;;105.32;44.10;;;;;;;20.17;39.75;94270.69;5024121;28;20065;-86
2022/05/18 07:41:57;;;;;;;102.38;46.90;;;;;;;20.16;39.88;94266.44;5007802;28;20037;-89
2022/05/18 07:44:23;;;;;;;95.80;42.85;;;;;;;20.16;39.12;94272.69;4967222;28;20125;-87
2022/05/18 07:46:48;;;;;;;97.82;48.08;;;;;;;20.14;39.02;94272.44;5026460;28;20079;-86
2022/05/18 07:49:14;;;;;;;106.68;49.47;;;;;;;20.19;39.26;94263.44;4990714;28;20095;-86
2022/05/18 07:51:39;;;;;;;132.23;64.13;;;;;;;20.16;39.06;94264.44;4991697;28;20045;-86
2022/05/18 07:54:05;;;;;;;131.73;67.80;;;;;;;20.17;39.38;94265.19;5013331;28;20040;-86
2022/05/18 07:56:30;;;;;;;128.60;66.43;;;;;;;20.14;38.96;94266.94;4995078;28;20065;-88
2022/05/18 07:58:56;;;;;;;128.90;63.90;;;;;;;20.17;39.12;94270.69;5004066;28;20033;-88
2022/05/18 08:01:21;;;;;;;120.18;61.42;;;;;;;20.16;39.28;94272.69;5028600;28;20048;-88
2022/05/18 08:03:50;;;;;;;100.00;49.58;;;;;;;20.26;39.29;94272.44;5046719;28;20068;-88
2022/05/18 08:06:15;;;;;;;112.25;49.88;;;;;;;20.15;39.17;94267.69;5041844;28;20151;-86
2022/05/18 08:08:41;;;;;;;83.50;43.40;;;;;;;20.15;39.16;94267.69;5025285;28;20037;-87
2022/05/18 08:16:35;;;;;;;132.07;67.15;;;;;;;20.19;38.95;94268.94;5023630;28;20553;-88
2022/05/18 08:19:01;;;;;;;158.13;77.60;;;;;;;20.17;38.83;94268.69;5029326;28;20038;-88
2022/05/18 08:21:27;;;;;;;93.82;39.88;;;;;;;20.22;38.42;94275.44;5018652;28;20045;-91
2022/05/18 08:23:53;;;;;;;125.30;44.00;;;;;;;20.22;38.44;94263.69;5010564;28;20038;-90
2022/05/18 08:26:18;;;;;;;154.68;68.30;;;;;;;20.18;38.59;94274.94;5033089;28;20041;-90
2022/05/18 08:28:44;;;;;;;109.75;53.75;;;;;;;20.13;38.75;94276.47;5038983;28;20044;-89
2022/05/18 08:31:09;;;;;;;105.13;52.78;;;;;;;20.14;38.82;94266.94;4984115;28;20038;-88
2022/05/18 08:33:35;;;;;;;70.22;32.22;;;;;;;20.16;38.61;94261.72;5024403;28;20036;-87
2022/05/18 08:36:02;;;;;;;84.00;34.72;;;;;;;20.19;38.76;94270.94;5001419;28;20041;-89
2022/05/18 08:38:28;;;;;;;88.50;43.20;;;;;;;20.18;39.00;94277.69;5055644;28;20045;-89
2022/05/18 08:40:58;;;;;;;79.07;41.22;;;;;;;20.23;38.75;94276.94;5004682;28;20053;-91
2022/05/18 08:43:28;;;;;;;124.30;54.97;;;;;;;20.24;38.81;94281.16;5032477;28;20033;-89
2022/05/18 08:46:01;;;;;;;;;;;;;;;20.29;39.23;94280.41;5032954;28;20275;-91
2022/05/18 08:48:30;;;;;;;129.25;53.38;;;;;;;20.27;39.14;94284.91;5032377;28;19960;-88
2022/05/18 08:51:01;;;;;;;145.40;61.63;;;;;;;20.31;39.45;94277.91;5031053;28;20042;-87
2022/05/18 08:53:44;;;;;;;131.18;58.85;;;;;;;20.34;39.35;94281.66;5017230;28;20068;-86
2022/05/18 08:56:19;;;;;;;118.05;55.15;;;;;;;20.38;39.62;94274.66;5032593;28;20044;-88
2022/05/18 08:58:49;;;;;;;132.05;55.78;;;;;;;20.38;39.22;94279.41;5015810;28;20531;-87
2022/05/18 09:01:17;;;;;;;135.38;60.95;;;;;;;20.43;39.35;94279.41;5026497;28;20095;-87
2022/05/18 09:03:49;;;;;;;159.60;63.83;;;;;;;20.44;39.77;94282.91;5028689;28;20041;-89
2022/05/18 09:06:33;;;;;;;188.05;68.55;;;;;;;20.45;39.74;94284.41;5015694;28;20567;-86
2022/05/18 09:11:49;;;;;;;166.23;63.45;;;;;;;20.52;39.74;94292.88;5017896;28;20099;-89
2022/05/18 09:14:17;;;;;;;174.80;76.13;;;;;;;20.56;39.71;94278.16;5013067;28;20459;-88
2022/05/18 09:16:45;;;;;;;169.07;73.70;;;;;;;20.56;39.62;94287.13;4975049;28;20045;-91
2022/05/18 09:19:21;;;;;;;153.57;64.82;;;;;;;20.55;40.01;94288.38;4987591;28;20035;-89
2022/05/18 09:21:56;;;;;;;150.25;65.82;;;;;;;20.59;39.90;94286.09;5024234;28;20073;-88
2022/05/18 09:24:38;;;;;;;194.57;79.88;;;;;;;20.59;40.13;94280.59;4998994;28;22369;-89
2022/05/18 09:27:19;;;;;;;193.93;84.95;;;;;;;20.62;40.19;94287.84;5004713;28;20077;-88
2022/05/18 09:29:49;;;;;;;204.48;90.78;;;;;;;20.59;40.16;94285.34;4978872;28;20060;-90
2022/05/18 09:32:34;;;;;;;200.95;101.07;;;;;;;20.63;40.46;94288.59;4993415;28;20045;-90
2022/05/18 09:35:12;;;;;;;231.55;106.47;;;;;;;20.63;40.34;94288.59;4994314;28;20042;-90
2022/05/18 09:37:47;;;;;;;218.25;109.97;;;;;;;20.65;40.53;94278.59;5029822;28;20136;-85
2022/05/18 09:40:23;;;;;;;247.73;109.60;;;;;;;20.69;40.67;94284.59;5009196;28;20096;-90
2022/05/18 09:42:52;;;;;;;221.25;109.75;;;;;;;20.69;41.24;94289.34;5001476;28;20062;-88
2022/05/18 09:45:19;;;;;;;247.60;126.15;;;;;;;20.70;40.77;94296.31;5003152;28;20551;-88
2022/05/18 09:47:49;;;;;;;273.10;138.15;;;;;;;20.74;40.69;94291.31;4999158;28;20482;-88
2022/05/18 09:50:15;;;;;;;241.63;126.57;;;;;;;20.68;40.81;94285.09;4978394;28;20040;-88
2022/05/18 09:52:41;;;;;;;261.50;139.82;;;;;;;20.71;40.83;94290.31;5043701;28;20037;-89
2022/05/18 09:55:08;;;;;;;289.00;148.82;;;;;;;20.69;40.70;94292.06;5051814;28;20044;-88
2022/05/18 09:57:50;;;;;;;291.08;146.98;;;;;;;20.70;40.84;94286.09;5006204;28;20476;-88
2022/05/18 10:00:22;;;;;;;263.80;132.73;;;;;;;20.76;41.26;94280.56;4994707;28;20435;-88
2022/05/18 10:08:28;;;;;;;269.05;153.80;;;;;;;20.72;40.97;94288.31;4989352;28;20046;-88
2022/05/18 10:11:02;;;;;;;256.35;136.82;;;;;;;20.71;41.03;94278.59;4983697;28;20096;-89
2022/05/18 10:13:33;;;;;;;253.02;139.68;;;;;;;20.70;41.10;94285.34;4987224;28;20505;-90
2022/05/18 10:16:20;;;;;;;241.40;132.43;;;;;;;20.68;41.19;94290.59;5021076;28;20037;-89
2022/05/18 10:19:05;;;;;;;231.27;129.05;;;;;;;20.72;41.07;94280.84;5024716;28;20065;-91
2022/05/18 10:21:55;;;;;;;229.05;125.65;;;;;;;20.68;41.36;94274.09;4985883;28;20035;-90
2022/05/18 10:24:45;;;;;;;225.55;118.20;;;;;;;20.68;41.54;94272.09;4983739;28;20049;-91
2022/05/18 10:27:13;;;;;;;202.70;116.35;;;;;;;20.72;41.48;94282.81;5011945;28;20127;-91
2022/05/18 10:29:42;;;;;;;204.25;114.40;;;;;;;20.72;41.38;94285.56;5022069;28;20046;-93
2022/05/18 10:32:22;;;;;;;189.68;110.07;;;;;;;20.69;41.58;94276.34;4989550;28;20046;-90
2022/05/18 10:34:51;;;;;;;182.07;100.50;;;;;;;20.74;41.60;94280.31;4971288;28;20050;-90
2022/05/18 10:37:32;;;;;;;187.77;100.60;;;;;;;20.73;41.75;94276.09;5003559;22;20054;-91
2022/05/18 10:40:08;;;;;;;196.20;98.85;;;;;;;20.74;41.32;94272.09;4960949;28;20113;-88
2022/05/18 10:42:43;;;;;;;180.25;97.65;;;;;;;20.74;41.47;94275.59;4966312;28;20044;-90
2022/05/18 10:45:52;;;;;;;186.43;99.93;;;;;;;20.75;41.58;94263.34;4976024;28;20057;-88
2022/05/18 10:48:20;;;;;;;166.30;90.17;;;;;;;20.76;41.13;94269.59;4992115;28;20089;-89
2022/05/18 10:51:12;;;;;;;153.93;86.35;;;;;;;20.75;41.52;94273.59;4956681;28;20042;-90
2022/05/18 10:53:48;;;;;;;132.80;79.45;;;;;;;20.76;41.70;94272.34;4985340;28;20046;-90
2022/05/18 10:56:28;;;;;;;136.32;83.05;;;;;;;20.75;41.95;94263.34;4977365;28;20062;-90
2022/05/18 10:59:34;;;;;;;140.65;83.00;;;;;;;20.75;41.78;94262.59;4967634;28;20042;-89
2022/05/18 11:02:27;;;;;;;128.32;77.93;;;;;;;20.77;41.56;94269.06;4946031;28;20043;-89
2022/05/18 11:05:08;;;;;;;124.65;77.15;;;;;;;20.78;41.63;94267.06;4974100;28;20058;-91
2022/05/18 11:07:33;;;;;;;133.63;70.85;;;;;;;20.78;41.84;94253.34;4968303;28;20058;-87
2022/05/18 11:10:00;;;;;;;124.72;68.15;;;;;;;20.77;41.99;94254.59;4953478;28;20319;-89
2022/05/18 11:12:34;;;;;;;108.68;64.40;;;;;;;20.77;42.08;94262.84;4973089;28;20055;-90
2022/05/18 11:15:34;;;;;;;111.57;63.78;;;;;;;20.81;41.78;94260.53;4970005;28;20142;-90
2022/05/18 11:18:24;;;;;;;114.80;64.47;;;;;;;20.79;41.82;94255.56;4959591;28;20090;-91
2022/05/18 11:20:58;;;;;;;115.78;62.90;;;;;;;20.85;42.00;94259.03;4936997;29;20074;-90
2022/05/18 11:23:46;;;;;;;125.22;64.22;;;;;;;20.82;41.85;94256.53;4958003;28;20039;-92
2022/05/18 11:26:26;;;;;;;127.55;63.30;;;;;;;20.79;42.14;94252.06;4958975;28;20042;-90
2022/05/18 11:29:09;;;;;;;138.98;70.28;;;;;;;20.86;41.94;94244.03;4945272;28;20676;-91
2022/05/18 11:31:54;;;;;;;163.32;72.03;;;;;;;20.79;42.20;94247.31;4972082;28;20142;-90
2022/05/18 11:34:45;;;;;;;229.05;82.85;;;;;;;20.79;42.46;94254.81;5002945;28;20125;-91
2022/05/18 11:37:14;;;;;;;;;;;;;;;20.79;42.37;94244.56;4983488;28;20057;-92
2022/05/18 11:40:06;;;;;;;112.00;49.47;;;;;;;20.75;42.61;94243.34;4997463;28;19921;-91
2022/05/18 11:42:57;;;;;;;89.35;42.78;;;;;;;20.72;42.33;94245.13;4968499;28;20042;-91
2022/05/18 11:45:47;;;;;;;;;;;;;;;20.71;42.48;94242.88;4975913;28;20050;-90
2022/05/18 11:48:24;;;;;;;87.80;37.67;;;;;;;20.69;42.53;94237.13;4954760;28;19950;-91
2022/05/18 11:51:10;;;;;;;67.35;28.33;;;;;;;20.61;42.60;94241.66;4954039;28;20034;-89